createdAt,value
2022-08-05T00:00:54.752Z,10.52
2022-08-05T00:03:21.201Z,10.50
2022-08-05T00:06:04.886Z,9.85
2022-08-05T00:08:36.138Z,9.77
2022-08-05T00:11:02.840Z,10.02
2022-08-05T00:13:38.072Z,10.85
2022-08-05T00:16:06.255Z,10.07
2022-08-05T00:18:35.287Z,10.23
2022-08-05T00:21:01.737Z,10.15
2022-08-05T00:23:44.276Z,9.90
2022-08-05T00:26:13.504Z,10.82
2022-08-05T00:28:42.665Z,10.55
2022-08-05T00:31:12.146Z,10.27
2022-08-05T00:34:54.361Z,10.75
2022-08-05T00:37:11.268Z,10.50
2022-08-05T00:39:13.550Z,9.25
2022-08-05T00:41:55.655Z,9.75
2022-08-05T00:44:23.300Z,10.27
2022-08-05T00:47:04.237Z,10.38
2022-08-05T00:49:44.766Z,9.95
2022-08-05T00:52:18.993Z,10.65
2022-08-05T00:54:55.179Z,10.32
2022-08-05T00:57:23.030Z,10.40
2022-08-05T00:59:51.887Z,9.93
2022-08-05T01:02:18.168Z,10.20
2022-08-05T01:04:44.552Z,10.18
2022-08-05T01:07:17.954Z,10.40
2022-08-05T01:09:55.576Z,10.55
2022-08-05T01:12:22.291Z,10.07
2022-08-05T01:14:48.767Z,10.00
2022-08-05T01:17:15.315Z,9.82
2022-08-05T01:20:00.695Z,9.90
2022-08-05T01:22:28.464Z,10.50
2022-08-05T01:24:54.797Z,10.13
2022-08-05T01:27:22.128Z,10.63
2022-08-05T01:29:49.720Z,9.77
2022-08-05T01:32:18.620Z,10.35
2022-08-05T01:34:45.271Z,9.88
2022-08-05T01:37:18.105Z,10.85
2022-08-05T01:39:51.806Z,10.50
2022-08-05T01:42:20.610Z,10.80
2022-08-05T01:44:54.172Z,11.27
2022-08-05T01:47:21.278Z,10.10
2022-08-05T01:50:01.426Z,10.40
2022-08-05T01:52:28.941Z,10.40
2022-08-05T01:54:56.720Z,9.80
2022-08-05T01:58:29.710Z,10.63
2022-08-05T02:00:12.119Z,10.90
2022-08-05T02:02:38.778Z,10.18
2022-08-05T02:07:59.942Z,10.55
2022-08-05T02:10:28.689Z,10.32
2022-08-05T02:12:55.154Z,10.50
2022-08-05T02:15:21.504Z,11.20
2022-08-05T02:18:32.402Z,10.88
2022-08-05T02:20:39.130Z,10.73
2022-08-05T02:23:05.633Z,10.05
2022-08-05T02:25:49.202Z,11.07
2022-08-05T02:28:16.902Z,10.43
2022-08-05T02:30:56.711Z,10.50
2022-08-05T02:33:24.173Z,10.57
2022-08-05T02:35:57.543Z,11.13
2022-08-05T02:38:27.094Z,10.00
2022-08-05T02:41:14.631Z,10.18
2022-08-05T02:44:02.405Z,10.50
2022-08-05T02:46:30.690Z,10.13
2022-08-05T02:48:57.076Z,10.20
2022-08-05T02:51:28.237Z,10.73
2022-08-05T02:54:09.954Z,10.27
2022-08-05T02:56:56.282Z,10.45
2022-08-05T02:59:26.925Z,11.15
2022-08-05T03:01:54.120Z,11.48
2022-08-05T03:04:20.725Z,10.95
2022-08-05T03:06:55.040Z,11.52
2022-08-05T03:09:27.237Z,10.82
2022-08-05T03:12:03.036Z,10.30
2022-08-05T03:14:29.368Z,10.15
2022-08-05T03:16:57.086Z,9.52
2022-08-05T03:19:33.105Z,9.57
2022-08-05T03:22:01.154Z,9.82
2022-08-05T03:24:30.070Z,11.60
2022-08-05T03:26:56.997Z,11.03
2022-08-05T03:29:23.719Z,9.98
2022-08-05T03:31:56.734Z,11.25
2022-08-05T03:34:26.822Z,11.07
2022-08-05T03:36:53.656Z,10.45
2022-08-05T03:39:27.074Z,10.10
2022-08-05T03:41:56.308Z,10.73
2022-08-05T03:44:22.974Z,10.35
2022-08-05T03:46:49.379Z,10.27
2022-08-05T03:49:15.738Z,10.27
2022-08-05T03:52:48.289Z,10.52
2022-08-05T03:55:34.325Z,10.68
2022-08-05T03:57:16.865Z,10.55
2022-08-05T03:59:46.504Z,10.38
2022-08-05T04:04:44.889Z,10.80
2022-08-05T04:07:11.277Z,9.63
2022-08-05T04:09:39.774Z,10.88
2022-08-05T04:12:24.613Z,10.35
2022-08-05T04:14:52.599Z,10.43
2022-08-05T04:17:18.963Z,10.60
2022-08-05T04:19:45.626Z,10.48
2022-08-05T04:22:21.270Z,10.10
2022-08-05T04:24:52.667Z,10.82
2022-08-05T04:27:19.242Z,10.70
2022-08-05T04:29:45.597Z,10.45
2022-08-05T04:32:14.804Z,7.57
2022-08-05T04:34:46.467Z,10.25
2022-08-05T04:37:12.966Z,10.23
2022-08-05T04:39:40.029Z,10.52
2022-08-05T04:42:06.613Z,11.07
2022-08-05T04:44:33.082Z,10.32
2022-08-05T04:46:59.571Z,10.75
2022-08-05T04:49:38.689Z,11.23
2022-08-05T04:52:12.234Z,10.68
2022-08-05T04:54:38.605Z,10.20
2022-08-05T04:57:04.958Z,10.90
2022-08-05T04:59:38.767Z,10.77
2022-08-05T05:02:37.739Z,10.27
2022-08-05T05:04:52.159Z,10.82
2022-08-05T05:07:18.520Z,10.48
2022-08-05T05:09:56.632Z,10.73
2022-08-05T05:12:23.443Z,10.57
2022-08-05T05:14:53.967Z,10.48
2022-08-05T05:17:24.186Z,9.57
2022-08-05T05:19:51.287Z,10.32
2022-08-05T05:22:23.943Z,9.70
2022-08-05T05:24:57.713Z,9.55
2022-08-05T05:27:41.263Z,9.82
2022-08-05T05:30:15.610Z,10.23
2022-08-05T05:32:56.296Z,10.02
2022-08-05T05:35:22.798Z,10.32
2022-08-05T05:37:59.857Z,10.57
2022-08-05T05:40:28.112Z,9.82
2022-08-05T05:42:54.993Z,10.55
2022-08-05T05:45:22.864Z,10.18
2022-08-05T05:48:06.210Z,9.77
2022-08-05T05:50:33.653Z,9.93
2022-08-05T05:53:00.541Z,10.60
2022-08-05T05:55:51.744Z,10.00
2022-08-05T05:58:13.375Z,10.18
2022-08-05T06:00:40.853Z,9.80
2022-08-05T06:03:39.886Z,10.75
2022-08-05T06:05:58.750Z,10.43
2022-08-05T06:08:31.556Z,11.13
2022-08-05T06:10:59.260Z,11.73
2022-08-05T06:13:26.682Z,11.40
2022-08-05T06:16:28.432Z,11.40
2022-08-05T06:18:39.563Z,12.25
2022-08-05T06:21:16.498Z,11.27
2022-08-05T06:23:44.073Z,12.10
2022-08-05T06:26:20.706Z,12.00
2022-08-05T06:28:48.307Z,12.18
2022-08-05T06:31:18.279Z,12.80
2022-08-05T06:34:06.912Z,12.73
2022-08-05T06:36:55.339Z,12.38
2022-08-05T06:39:21.847Z,12.68
2022-08-05T06:41:50.870Z,12.18
2022-08-05T06:44:18.608Z,13.00
2022-08-05T06:46:50.755Z,12.95
2022-08-05T06:49:17.478Z,13.13
2022-08-05T06:51:45.188Z,12.80
2022-08-05T06:54:18.075Z,12.93
2022-08-05T06:56:54.494Z,11.68
2022-08-05T06:59:21.743Z,13.48
2022-08-05T07:01:52.786Z,12.75
2022-08-05T07:04:19.568Z,13.13
2022-08-05T07:06:46.181Z,13.02
2022-08-05T07:09:16.822Z,12.65
2022-08-05T07:11:51.407Z,12.07
2022-08-05T07:14:29.084Z,12.45
2022-08-05T07:18:08.749Z,13.30
2022-08-05T07:20:31.277Z,12.68
2022-08-05T07:22:30.377Z,13.48
2022-08-05T07:24:56.935Z,14.30
2022-08-05T07:27:23.461Z,18.20
2022-08-05T07:30:23.945Z,18.02
2022-08-05T07:32:40.557Z,17.15
2022-08-05T07:36:02.114Z,18.33
2022-08-05T07:37:54.051Z,17.92
2022-08-05T07:40:32.504Z,18.70
2022-08-05T07:42:59.845Z,18.95
2022-08-05T07:45:56.287Z,19.35
2022-08-05T07:48:36.600Z,20.40
2022-08-05T07:51:04.253Z,20.25
2022-08-05T07:53:50.557Z,20.45
2022-08-05T07:56:59.832Z,19.98
2022-08-05T07:59:04.672Z,20.70
2022-08-05T08:04:03.156Z,20.05
2022-08-05T08:06:30.599Z,22.08
2022-08-05T08:08:56.992Z,22.63
2022-08-05T08:11:27.472Z,21.45
2022-08-05T08:14:03.655Z,21.98
2022-08-05T08:16:35.676Z,21.65
2022-08-05T08:20:10.394Z,21.77
2022-08-05T08:22:03.029Z,21.52
2022-08-05T08:24:46.036Z,21.10
2022-08-05T08:27:17.210Z,21.88
2022-08-05T08:30:04.102Z,22.02
2022-08-05T08:32:30.073Z,21.33
2022-08-05T08:34:58.340Z,21.40
2022-08-05T08:37:27.911Z,21.67
2022-08-05T08:39:54.657Z,19.90
2022-08-05T08:42:32.584Z,21.08
2022-08-05T08:45:23.974Z,21.05
2022-08-05T08:48:06.848Z,21.67
2022-08-05T08:51:22.405Z,21.33
2022-08-05T08:53:26.178Z,21.20
2022-08-05T08:56:04.788Z,20.88
2022-08-05T08:58:37.165Z,19.95
2022-08-05T09:01:10.995Z,21.65
2022-08-05T09:03:45.399Z,22.38
2022-08-05T09:06:16.951Z,21.98
2022-08-05T09:08:46.548Z,22.02
2022-08-05T09:11:13.906Z,22.05
2022-08-05T09:14:01.039Z,21.23
2022-08-05T09:16:26.835Z,22.48
2022-08-05T09:18:53.334Z,21.48
2022-08-05T09:22:22.776Z,21.83
2022-08-05T09:24:08.272Z,21.50
2022-08-05T09:26:36.724Z,21.73
2022-08-05T09:29:03.253Z,22.30
2022-08-05T09:32:41.032Z,21.77
2022-08-05T09:34:16.057Z,21.73
2022-08-05T09:36:45.781Z,21.63
2022-08-05T09:39:22.964Z,20.90
2022-08-05T09:41:53.888Z,21.30
2022-08-05T09:44:22.793Z,22.48
2022-08-05T09:46:51.858Z,22.30
2022-08-05T09:49:20.197Z,21.20
2022-08-05T09:51:49.002Z,22.05
2022-08-05T09:54:16.488Z,22.48
2022-08-05T09:56:55.390Z,21.73
2022-08-05T09:59:24.076Z,22.05
2022-08-05T10:01:57.715Z,22.10
2022-08-05T10:04:29.191Z,21.35
2022-08-05T10:06:59.064Z,21.30
2022-08-05T10:09:28.438Z,22.58
2022-08-05T10:11:56.399Z,21.52
2022-08-05T10:14:24.977Z,22.40
2022-08-05T10:16:54.473Z,20.77
2022-08-05T10:19:23.862Z,21.58
2022-08-05T10:21:58.455Z,22.75
2022-08-05T10:24:25.019Z,22.67
2022-08-05T10:26:53.938Z,23.00
2022-08-05T10:29:23.842Z,21.38
2022-08-05T10:32:53.684Z,21.30
2022-08-05T10:34:53.759Z,23.40
2022-08-05T10:37:20.130Z,22.75
2022-08-05T10:40:03.585Z,23.50
2022-08-05T10:42:34.614Z,25.35
2022-08-05T10:45:01.283Z,23.52
2022-08-05T10:47:31.403Z,25.65
2022-08-05T10:50:31.776Z,26.05
2022-08-05T10:52:49.511Z,24.90
2022-08-05T10:55:18.519Z,26.75
2022-08-05T10:57:45.007Z,25.02
2022-08-05T11:00:18.483Z,27.73
2022-08-05T11:02:50.628Z,25.67
2022-08-05T11:05:18.347Z,28.20
2022-08-05T11:08:01.750Z,27.77
2022-08-05T11:10:32.715Z,27.23
2022-08-05T11:12:59.081Z,26.50
2022-08-05T11:16:00.192Z,26.60
2022-08-05T11:18:15.780Z,26.77
2022-08-05T11:20:44.160Z,25.25
2022-08-05T11:23:10.688Z,26.27
2022-08-05T11:26:04.616Z,26.20
2022-08-05T11:28:23.563Z,26.85
2022-08-05T11:30:53.376Z,27.02
2022-08-05T11:33:21.331Z,25.92
2022-08-05T11:36:04.495Z,25.33
2022-08-05T11:38:37.294Z,26.05
2022-08-05T11:41:35.408Z,25.45
2022-08-05T11:44:04.491Z,26.85
2022-08-05T11:46:34.979Z,26.33
2022-08-05T11:49:01.386Z,25.65
2022-08-05T11:51:44.667Z,25.27
2022-08-05T11:54:14.298Z,25.27
2022-08-05T11:56:41.344Z,24.00
2022-08-05T11:59:13.742Z,24.75
2022-08-05T12:01:40.369Z,25.73
2022-08-05T12:04:06.695Z,24.27
2022-08-05T12:06:33.566Z,24.58
2022-08-05T12:09:01.185Z,24.00
2022-08-05T12:11:39.742Z,24.48
2022-08-05T12:14:07.581Z,24.77
2022-08-05T12:16:34.230Z,24.52
2022-08-05T12:19:04.991Z,24.33
2022-08-05T12:21:39.192Z,24.50
2022-08-05T12:24:07.841Z,24.45
2022-08-05T12:26:34.250Z,23.95
2022-08-05T12:29:01.469Z,24.90
2022-08-05T12:31:33.045Z,23.33
2022-08-05T12:34:10.028Z,23.83
2022-08-05T12:36:50.666Z,24.63
2022-08-05T12:39:17.124Z,24.05
2022-08-05T12:41:44.058Z,23.25
2022-08-05T12:44:11.637Z,23.85
2022-08-05T12:46:41.025Z,24.05
2022-08-05T12:49:12.040Z,24.48
2022-08-05T12:52:13.081Z,24.17
2022-08-05T12:54:30.710Z,24.80
2022-08-05T12:57:01.727Z,23.05
2022-08-05T13:00:08.863Z,23.92
2022-08-05T13:02:17.040Z,25.83
2022-08-05T13:04:52.536Z,25.45
2022-08-05T13:07:41.420Z,25.02
2022-08-05T13:10:08.359Z,24.75
2022-08-05T13:12:36.155Z,22.45
2022-08-05T13:15:24.005Z,22.15
2022-08-05T13:17:50.957Z,23.63
2022-08-05T13:20:21.694Z,105.93
2022-08-05T13:22:54.559Z,133.50
2022-08-05T13:25:21.923Z,149.80
2022-08-05T13:27:50.202Z,110.90
2022-08-05T13:30:33.803Z,80.63
2022-08-05T13:33:03.122Z,74.68
2022-08-05T13:35:42.967Z,218.48
2022-08-05T13:38:28.182Z,227.68
2022-08-05T13:40:57.949Z,201.93
2022-08-05T13:43:24.700Z,150.07
2022-08-05T13:46:13.434Z,109.25
2022-08-05T13:48:57.090Z,83.57
2022-08-05T13:51:25.767Z,79.05
2022-08-05T13:53:56.556Z,120.32
2022-08-05T13:56:25.532Z,151.73
2022-08-05T13:58:53.320Z,137.75
2022-08-05T14:01:22.003Z,109.43
2022-08-05T14:03:53.969Z,97.68
2022-08-05T14:06:26.349Z,96.97
2022-08-05T14:08:53.411Z,103.28
2022-08-05T14:11:22.084Z,201.13
2022-08-05T14:13:48.633Z,232.85
2022-08-05T14:16:21.412Z,171.68
2022-08-05T14:18:47.793Z,157.63
2022-08-05T14:22:10.321Z,131.27
2022-08-05T14:24:02.271Z,138.55
2022-08-05T14:26:35.616Z,131.15
2022-08-05T14:29:05.354Z,203.93
2022-08-05T14:32:03.085Z,188.20
2022-08-05T14:34:29.301Z,158.73
2022-08-05T14:37:02.067Z,136.05
2022-08-05T14:39:28.494Z,122.50
2022-08-05T14:42:19.572Z,132.02
2022-08-05T14:44:42.080Z,136.82
2022-08-05T14:47:08.859Z,219.45
2022-08-05T14:49:56.319Z,203.10
2022-08-05T14:52:42.876Z,183.38
2022-08-05T14:55:08.075Z,172.40
2022-08-05T14:57:54.850Z,160.30
2022-08-05T15:00:27.923Z,152.32
2022-08-05T15:02:55.054Z,141.32
2022-08-05T15:05:21.632Z,139.27
2022-08-05T15:08:05.737Z,127.72
2022-08-05T15:10:39.129Z,118.15
2022-08-05T15:13:05.890Z,121.80
2022-08-05T15:15:54.382Z,114.10
2022-08-05T15:18:23.255Z,125.68
2022-08-05T15:20:51.227Z,163.40
2022-08-05T15:23:17.566Z,141.38
2022-08-05T15:25:51.966Z,115.35
2022-08-05T15:28:24.430Z,101.68
2022-08-05T15:30:54.244Z,79.43
2022-08-05T15:34:05.247Z,65.70
2022-08-05T15:36:16.653Z,58.40
2022-08-05T15:38:44.537Z,112.70
2022-08-05T15:41:22.732Z,86.38
2022-08-05T15:43:50.995Z,72.18
2022-08-05T15:46:17.414Z,64.18
2022-08-05T15:48:54.732Z,49.00
2022-08-05T15:52:10.017Z,50.35
2022-08-05T15:54:15.251Z,40.75
2022-08-05T15:56:42.153Z,38.00
2022-08-05T15:59:09.990Z,47.25
2022-08-05T16:01:52.741Z,48.15
2022-08-05T16:04:20.713Z,36.85
2022-08-05T16:06:55.808Z,33.35
2022-08-05T16:09:23.095Z,34.10
2022-08-05T16:11:53.046Z,34.08
2022-08-05T16:14:20.081Z,31.00
2022-08-05T16:16:46.497Z,118.60
2022-08-05T16:19:25.580Z,184.85
2022-08-05T16:22:02.641Z,171.35
2022-08-05T16:24:41.519Z,150.75
2022-08-05T16:27:16.503Z,127.38
2022-08-05T16:29:51.054Z,112.32
2022-08-05T16:32:17.615Z,95.30
2022-08-05T16:34:54.807Z,81.70
2022-08-05T16:38:13.656Z,64.65
2022-08-05T16:40:24.923Z,58.88
2022-08-05T16:42:55.349Z,54.67
2022-08-05T16:46:05.379Z,40.35
2022-08-05T16:48:07.983Z,63.60
2022-08-05T16:50:36.905Z,66.60
2022-08-05T16:53:12.133Z,97.30
2022-08-05T16:55:48.645Z,98.90
2022-08-05T16:58:14.975Z,85.97
2022-08-05T17:00:46.824Z,75.68
2022-08-05T17:03:19.641Z,64.38
2022-08-05T17:05:50.213Z,47.97
2022-08-05T17:08:36.057Z,39.30
2022-08-05T17:11:06.242Z,30.15
2022-08-05T17:13:37.369Z,28.90
2022-08-05T17:16:28.012Z,33.70
2022-08-05T17:18:52.075Z,85.00
2022-08-05T17:21:18.407Z,117.15
2022-08-05T17:24:04.916Z,90.90
2022-08-05T17:26:32.273Z,58.10
2022-08-05T17:28:59.611Z,50.65
2022-08-05T17:31:56.536Z,46.67
2022-08-05T17:34:18.275Z,37.10
2022-08-05T17:36:44.596Z,34.40
2022-08-05T17:39:23.860Z,32.80
2022-08-05T17:42:17.498Z,29.88
2022-08-05T17:44:43.134Z,23.63
2022-08-05T17:47:17.625Z,19.25
2022-08-05T17:50:00.333Z,18.23
2022-08-05T17:52:30.958Z,14.70
2022-08-05T17:54:57.589Z,88.97
2022-08-05T17:57:24.558Z,62.92
2022-08-05T18:00:04.828Z,65.22
2022-08-05T18:02:32.137Z,41.20
2022-08-05T18:04:58.572Z,30.92
2022-08-05T18:07:25.268Z,27.85
2022-08-05T18:10:06.524Z,26.75
2022-08-05T18:12:37.446Z,21.15
2022-08-05T18:15:03.949Z,17.38
2022-08-05T18:18:00.596Z,15.70
2022-08-05T18:20:17.453Z,17.58
2022-08-05T18:22:54.064Z,14.18
2022-08-05T18:25:21.283Z,10.95
2022-08-05T18:27:52.370Z,10.23
2022-08-05T18:30:19.363Z,15.95
2022-08-05T18:32:53.084Z,33.33
2022-08-05T18:35:49.759Z,23.63
2022-08-05T18:38:12.909Z,18.63
2022-08-05T18:43:31.577Z,10.88
2022-08-05T18:46:04.697Z,9.75
2022-08-05T18:48:33.331Z,8.85
2022-08-05T18:52:03.353Z,8.75
2022-08-05T18:53:50.116Z,8.32
2022-08-05T18:56:16.947Z,7.82
2022-08-05T18:58:48.310Z,17.52
2022-08-05T19:01:17.845Z,26.10
2022-08-05T19:03:55.179Z,23.25
2022-08-05T19:06:37.066Z,28.15
2022-08-05T19:09:04.058Z,16.40
2022-08-05T19:11:59.356Z,15.63
2022-08-05T19:14:44.512Z,15.02
2022-08-05T19:17:03.491Z,14.02
2022-08-05T19:19:32.880Z,11.50
2022-08-05T19:22:00.467Z,26.08
2022-08-05T19:24:34.503Z,33.60
2022-08-05T19:27:03.934Z,25.90
2022-08-05T19:29:36.327Z,20.58
2022-08-05T19:32:04.416Z,18.73
2022-08-05T19:34:31.063Z,14.70
2022-08-05T19:36:57.707Z,13.15
2022-08-05T19:39:24.098Z,11.02
2022-08-05T19:42:07.158Z,14.40
2022-08-05T19:44:44.543Z,49.63
2022-08-05T19:47:11.691Z,99.20
2022-08-05T19:49:41.966Z,111.82
2022-08-05T19:52:30.718Z,112.45
2022-08-05T19:54:54.773Z,110.05
2022-08-05T19:57:48.998Z,108.65
2022-08-05T20:00:07.597Z,99.43
2022-08-05T20:02:35.841Z,97.90
2022-08-05T20:05:04.790Z,95.85
2022-08-05T20:07:38.992Z,95.03
2022-08-05T20:10:14.458Z,94.97
2022-08-05T20:12:47.646Z,121.03
2022-08-05T20:15:15.018Z,296.08
2022-08-05T20:18:01.556Z,269.88
2022-08-05T20:20:29.824Z,277.48
2022-08-05T20:22:56.331Z,262.13
2022-08-05T20:25:24.787Z,265.88
2022-08-05T20:28:00.245Z,253.80
2022-08-05T20:30:28.129Z,243.38
2022-08-05T20:32:54.410Z,241.70
2022-08-05T20:35:21.110Z,238.32
2022-08-05T20:38:06.670Z,230.13
2022-08-05T20:40:34.767Z,223.00
2022-08-05T20:43:01.237Z,214.52
2022-08-05T20:45:47.778Z,211.50
2022-08-05T20:48:16.552Z,211.38
2022-08-05T20:50:45.541Z,210.48
2022-08-05T20:53:16.358Z,241.48
2022-08-05T20:56:09.125Z,274.70
2022-08-05T20:58:36.089Z,256.98
2022-08-05T21:01:03.441Z,248.15
2022-08-05T21:03:30.455Z,252.63
2022-08-05T21:06:01.510Z,258.83
2022-08-05T21:08:36.005Z,257.48
2022-08-05T21:11:09.177Z,243.27
2022-08-05T21:13:55.682Z,227.02
2022-08-05T21:16:23.125Z,230.63
2022-08-05T21:18:56.590Z,232.68
2022-08-05T21:24:06.373Z,228.63
2022-08-05T21:26:32.671Z,218.05
2022-08-05T21:29:03.524Z,226.30
2022-08-05T21:31:41.294Z,219.20
2022-08-05T21:34:08.192Z,221.20
2022-08-05T21:36:37.310Z,227.05
2022-08-05T21:39:03.764Z,211.57
2022-08-05T21:41:33.826Z,209.60
2022-08-05T21:44:03.790Z,213.35
2022-08-05T21:46:30.893Z,200.27
2022-08-05T21:48:57.325Z,199.48
2022-08-05T21:52:22.710Z,196.87
2022-08-05T21:54:12.891Z,194.32
2022-08-05T21:56:44.253Z,190.95
2022-08-05T21:59:22.506Z,193.13
2022-08-05T22:01:51.538Z,180.35
2022-08-05T22:04:25.516Z,184.32
2022-08-05T22:06:52.064Z,179.35
2022-08-05T22:09:21.071Z,177.15
2022-08-05T22:11:49.122Z,178.60
2022-08-05T22:14:33.491Z,164.60
2022-08-05T22:17:04.932Z,163.27
2022-08-05T22:20:00.302Z,167.15
2022-08-05T22:22:26.923Z,157.05
2022-08-05T22:24:55.905Z,162.88
2022-08-05T22:27:22.440Z,156.05
2022-08-05T22:29:49.311Z,152.75
2022-08-05T22:32:20.747Z,155.10
2022-08-05T22:34:49.342Z,151.50
2022-08-05T22:37:15.802Z,148.18
2022-08-05T22:39:42.347Z,139.63
2022-08-05T22:42:15.447Z,143.60
2022-08-05T22:44:56.986Z,140.10
2022-08-05T22:47:30.083Z,136.60
2022-08-05T22:50:20.521Z,133.90
2022-08-05T22:52:43.344Z,132.05
2022-08-05T22:55:19.092Z,131.73
2022-08-05T22:57:46.316Z,126.55
2022-08-05T23:00:12.713Z,127.13
2022-08-05T23:02:46.936Z,130.65
2022-08-05T23:05:13.984Z,121.37
2022-08-05T23:07:45.388Z,122.25
2022-08-05T23:10:15.476Z,119.50
2022-08-05T23:12:46.082Z,118.82
2022-08-05T23:15:12.573Z,118.60
2022-08-05T23:18:00.876Z,110.88
2022-08-05T23:20:25.716Z,110.03
2022-08-05T23:22:55.624Z,107.60
2022-08-05T23:25:52.145Z,107.90
2022-08-05T23:28:09.267Z,105.55
2022-08-05T23:30:39.831Z,106.15
2022-08-05T23:33:21.880Z,109.53
2022-08-05T23:35:48.998Z,101.95
2022-08-05T23:38:15.968Z,99.78
2022-08-05T23:40:50.216Z,97.15
2022-08-05T23:43:25.285Z,95.88
2022-08-05T23:46:03.182Z,95.05
2022-08-05T23:48:29.509Z,95.43
2022-08-05T23:50:55.892Z,92.53
2022-08-05T23:53:28.529Z,91.00
2022-08-05T23:56:11.238Z,87.32
2022-08-05T23:58:38.536Z,88.65
